createdAt,value
2022-11-17T00:42:10.668Z,21.23
2022-11-17T00:45:13.471Z,16.35
2022-11-17T00:50:57.649Z,17.58
2022-11-17T00:53:29.144Z,16.52
2022-11-17T02:00:41.931Z,14.60
2022-11-17T02:03:27.151Z,14.30
2022-11-17T02:06:09.559Z,17.85
2022-11-17T02:08:42.991Z,15.77
2022-11-17T02:11:14.454Z,17.17
2022-11-17T02:13:41.614Z,18.85
2022-11-17T02:16:19.462Z,17.13
2022-11-17T02:20:08.227Z,13.13
2022-11-17T02:30:19.667Z,13.27
2022-11-17T02:32:46.496Z,13.85
2022-11-17T02:35:22.141Z,17.13
2022-11-17T02:59:51.333Z,14.20
2022-11-17T03:06:03.931Z,21.33
2022-11-17T03:14:17.801Z,17.85
2022-11-17T03:17:07.666Z,19.50
2022-11-17T03:20:26.977Z,17.02
2022-11-17T03:41:13.409Z,14.15
2022-11-17T03:43:50.157Z,15.48
2022-11-17T03:46:52.890Z,16.45
2022-11-17T03:53:16.233Z,15.70
2022-11-17T03:56:15.927Z,13.98
2022-11-17T04:02:11.264Z,15.15
2022-11-17T04:05:11.091Z,16.23
2022-11-17T04:08:03.758Z,16.05
2022-11-17T04:18:04.731Z,15.18
2022-11-17T04:20:50.124Z,17.35
2022-11-17T04:27:55.003Z,17.17
2022-11-17T04:30:26.171Z,15.98
2022-11-17T04:32:53.069Z,17.58
2022-11-17T04:36:26.252Z,17.40
2022-11-17T04:39:29.059Z,17.15
2022-11-17T04:42:19.723Z,16.90
2022-11-17T04:45:23.598Z,16.70
2022-11-17T04:48:01.797Z,21.88
2022-11-17T05:16:58.519Z,21.60
2022-11-17T13:44:49.229Z,21.10
2022-11-17T13:51:31.805Z,19.50
2022-11-17T14:06:12.308Z,23.77
2022-11-17T14:09:17.271Z,20.58
2022-11-17T14:17:05.102Z,22.25
2022-11-17T14:27:11.417Z,19.83
2022-11-17T15:02:37.948Z,26.55
2022-11-17T15:05:33.889Z,23.95
2022-11-17T15:15:36.768Z,24.70
2022-11-17T15:18:15.044Z,25.38
2022-11-17T15:20:42.261Z,32.05
2022-11-17T15:23:42.429Z,23.42
2022-11-17T15:38:16.418Z,24.38
2022-11-17T15:44:44.362Z,30.38
2022-11-17T16:58:56.326Z,31.50
2022-11-17T17:05:15.805Z,34.72
2022-11-17T17:10:59.150Z,34.03
2022-11-17T17:14:07.388Z,31.98
2022-11-17T17:16:42.405Z,33.33
2022-11-17T17:23:43.107Z,35.90
2022-11-17T17:26:39.597Z,35.17
2022-11-17T17:29:28.335Z,36.35
2022-11-17T17:31:59.603Z,40.58
2022-11-17T17:34:30.201Z,33.83
2022-11-17T17:37:04.112Z,38.17
2022-11-17T17:39:35.361Z,34.15
2022-11-17T17:42:06.882Z,37.95
2022-11-17T17:44:40.529Z,34.92
2022-11-17T17:52:13.931Z,36.55
2022-11-17T17:55:17.521Z,35.13
2022-11-17T17:58:03.289Z,38.00
2022-11-17T18:00:59.598Z,38.22
2022-11-17T18:04:05.569Z,38.13
2022-11-17T18:07:12.002Z,35.60
2022-11-17T18:09:42.784Z,43.22
2022-11-17T18:12:14.415Z,39.63
2022-11-17T18:14:44.003Z,40.92
2022-11-17T18:17:12.214Z,42.97
2022-11-17T18:23:41.137Z,37.80
2022-11-17T18:27:06.022Z,40.35
2022-11-17T18:34:01.024Z,40.63
2022-11-17T18:36:35.420Z,42.28
2022-11-17T18:39:02.411Z,48.85
2022-11-17T18:41:34.907Z,40.92
2022-11-17T21:20:11.189Z,35.65
2022-11-17T21:23:01.665Z,35.45
2022-11-17T21:26:14.250Z,40.42
2022-11-17T21:29:04.808Z,40.13
2022-11-17T21:31:43.073Z,34.97
2022-11-17T21:34:30.239Z,35.70
2022-11-17T21:37:26.183Z,33.53
2022-11-17T21:40:02.493Z,36.30
2022-11-17T21:42:43.905Z,38.17
2022-11-17T21:45:43.592Z,34.22
2022-11-17T21:48:10.327Z,33.72
2022-11-17T21:50:43.212Z,35.03
2022-11-17T21:53:09.736Z,35.60
2022-11-17T21:55:38.233Z,37.30
2022-11-17T21:58:10.227Z,33.83
2022-11-17T22:00:50.365Z,31.33
2022-11-17T22:03:42.227Z,37.55
2022-11-17T22:06:11.055Z,34.28
2022-11-17T22:08:50.822Z,32.42
2022-11-17T22:11:35.578Z,33.78
2022-11-17T22:14:14.135Z,38.67
2022-11-17T22:16:46.309Z,33.38
2022-11-17T22:19:53.703Z,32.75
2022-11-17T22:22:31.964Z,35.83
2022-11-17T22:25:11.442Z,37.60
2022-11-17T22:30:52.367Z,36.05
2022-11-17T22:33:20.481Z,37.58
2022-11-17T22:35:58.078Z,37.53
2022-11-17T22:38:37.567Z,37.42
2022-11-17T22:41:55.477Z,36.72
2022-11-17T22:44:33.253Z,41.22
2022-11-17T22:55:29.944Z,37.88
2022-11-17T22:58:04.033Z,41.22
2022-11-17T23:00:33.048Z,39.63
2022-11-17T23:03:13.631Z,32.95
2022-11-17T23:05:40.296Z,36.80
2022-11-17T23:11:34.926Z,40.72
2022-11-17T23:14:38.981Z,38.03
2022-11-17T23:17:13.271Z,40.13
2022-11-17T23:19:39.867Z,36.30
2022-11-17T23:24:32.790Z,39.47
2022-11-17T23:26:59.324Z,43.75
2022-11-17T23:29:25.823Z,45.17
2022-11-17T23:31:52.765Z,45.13
2022-11-17T23:34:19.590Z,43.88
2022-11-17T23:36:46.654Z,41.20
2022-11-17T23:39:13.366Z,44.15
2022-11-17T23:41:42.753Z,39.38
2022-11-17T23:44:09.363Z,37.97
2022-11-17T23:49:03.132Z,38.97
2022-11-17T23:51:30.143Z,43.67
2022-11-17T23:54:01.519Z,44.70
2022-11-17T23:56:31.764Z,41.35
2022-11-17T23:59:05.885Z,44.40
